Accueil
METAR-TAF:

METAR-TAF

Aéroports :

Savannah/Hilton Head International Airport

Savannah, Géorgie, États-Unis

latitude: 32-07-08N, longitude: 081-12-08W, altitude: 15 m

Observation

Le bulletin a été fait il y a 1 heure et 3 minutes, à 21:53 UTC
Vent 5 kt de nord
Température 17°C
Humidité 48%
Pression 1022 hPa
Visibilité: 16.1 km
Quelques nuages à une hauteur de 20000 ft

METAR: KSAV 202153Z 35005KT 10SM FEW200 17/06 A3017 RMK AO2 SLP214 T01720061

Heure: 17:56 (22:56 UTC)

Prévision

Le bulletin a été fait il y a 5 heures et 35 minutes, à 17:21 UTC
Prévision valable du 20 à 18 UTC au 21 à 18 UTC
Vent 8 kt de nord
Visibilité: 10 km
Ciel clair
A partir de 20 à 2300 UTC
Vent 3 kt de nord/nord-est
Visibilité: 10 km
Ciel clair
A partir de 21 à 1400 UTC
Vent 5 kt de est/nord-est
Visibilité: 10 km
Quelques nuages à une hauteur de 15000 ft

TAF: KSAV 201721Z 2018/2118 35008KT P6SM SKC FM202300 02003KT P6SM SKC FM211400 06005KT P6SM FEW150

Observations et prévisions météorologiques de plus de 4000 aéroports (messages METAR et TAF).

Les stations disponibles sont représentées par des disques jaunes et rouges sur la carte.

Passer la souris dessus pour voir le nom de la station.

Cliquer dessus pour voir les observations et prévisions météorologiques.

Pour changer de carte: cliquez sur les boutons verts avec une croix noire pour zoomer, sur le bouton vert avec un tiret pour effectuer un zoom arrière, ou sur les flèches vertes pour les cartes adjacentes.


METAR-TAF: